Time;durP1;ratioP1;P1;durP2;ratioP2;P2;SDS_P1;SDS_P2;PMS_P1;PMS_P2;Temp;Humidity;BMP_temperature;BMP_pressure;BME280_temperature;BME280_humidity;BME280_pressure;Samples;Min_cycle;Max_cycle;Signal;HPM_P1;HPM_P2
2023/09/05 00:00:26;;;;;;;0.40;0.30;;;;;;;20.98;81.28;95154.75;5072668;28;20477;-58
2023/09/05 00:02:54;;;;;;;0.40;0.30;;;;;;;20.74;84.88;95153.66;5072577;28;20809;-58
2023/09/05 00:05:23;;;;;;;0.40;0.30;;;;;;;20.47;83.46;95148.91;5072497;28;20950;-58
2023/09/05 00:07:53;;;;;;;0.50;0.20;;;;;;;20.89;88.30;95157.59;5072676;28;20449;-59
2023/09/05 00:10:21;;;;;;;0.40;0.20;;;;;;;20.81;86.57;95100.00;5071932;28;20496;-59
2023/09/05 00:12:51;;;;;;;0.70;0.40;;;;;;;20.57;84.08;95136.91;5072347;28;20473;-59
2023/09/05 00:15:19;;;;;;;1.90;0.40;;;;;;;20.63;84.70;95132.91;5072010;28;20483;-60
2023/09/05 00:17:48;;;;;;;0.40;0.30;;;;;;;20.42;85.61;95130.31;5071825;28;20538;-59
2023/09/05 00:20:17;;;;;;;0.50;0.30;;;;;;;20.33;84.10;95131.53;5072478;28;20452;-59
2023/09/05 00:22:45;;;;;;;0.83;0.50;;;;;;;20.26;84.87;95132.84;5071898;28;20429;-59
2023/09/05 00:25:15;;;;;;;0.40;0.30;;;;;;;20.69;87.21;95131.56;5072439;28;20453;-60
2023/09/05 00:27:44;;;;;;;0.40;0.30;;;;;;;20.33;82.93;95118.06;5072057;28;20437;-59
2023/09/05 00:30:14;;;;;;;0.70;0.53;;;;;;;20.48;84.08;95120.09;5071280;28;20441;-59
2023/09/05 00:32:43;;;;;;;0.60;0.60;;;;;;;20.34;82.22;95106.19;5071878;28;20495;-60
2023/09/05 00:35:13;;;;;;;0.83;0.50;;;;;;;20.58;81.64;95106.97;5071399;28;20936;-59
2023/09/05 00:37:41;;;;;;;2.40;2.20;;;;;;;20.23;78.93;95082.41;5071803;28;20606;-59
2023/09/05 00:40:11;;;;;;;0.50;0.40;;;;;;;20.17;78.22;95101.75;5072406;28;20921;-60
2023/09/05 00:42:41;;;;;;;0.40;0.40;;;;;;;20.21;77.98;95100.75;5045430;28;20934;-59
2023/09/05 00:45:10;;;;;;;0.60;0.40;;;;;;;20.06;80.23;95114.84;5071931;28;20518;-59
2023/09/05 00:47:40;;;;;;;0.73;0.40;;;;;;;20.03;79.07;95112.84;5071615;28;20441;-59
2023/09/05 00:50:10;;;;;;;0.50;0.30;;;;;;;19.85;79.88;95116.84;5070355;28;20493;-60
2023/09/05 00:52:39;;;;;;;0.50;0.40;;;;;;;19.95;83.41;95127.19;5071397;28;20446;-60
2023/09/05 00:55:08;;;;;;;0.50;0.30;;;;;;;20.02;82.54;95121.25;5071501;28;20980;-60
2023/09/05 00:57:37;;;;;;;0.50;0.50;;;;;;;19.98;80.73;95113.06;5071585;28;20465;-60
2023/09/05 01:00:09;;;;;;;0.50;0.40;;;;;;;19.92;79.42;95105.53;5071975;28;20901;-59
2023/09/05 01:02:37;;;;;;;0.50;0.30;;;;;;;20.22;80.75;95101.53;5071702;28;20542;-60
2023/09/05 01:05:07;;;;;;;0.97;0.50;;;;;;;19.85;77.45;95099.91;5071800;28;20445;-59
2023/09/05 01:07:49;;;;;;;0.50;0.40;;;;;;;19.80;78.04;95103.59;5071130;28;20445;-60
2023/09/05 01:10:22;;;;;;;0.50;0.30;;;;;;;19.73;77.92;95097.97;5071426;28;20465;-59
2023/09/05 01:12:51;;;;;;;0.40;0.30;;;;;;;19.68;78.29;95100.88;5071441;28;20445;-60
2023/09/05 01:15:21;;;;;;;0.40;0.30;;;;;;;19.90;78.41;95103.19;5071368;28;20793;-60
2023/09/05 01:17:53;;;;;;;0.40;0.30;;;;;;;20.07;77.82;95080.66;5071397;28;20477;-60
2023/09/05 01:20:31;;;;;;;0.50;0.30;;;;;;;20.35;76.78;95108.53;5071519;28;20516;-60
2023/09/05 01:23:04;;;;;;;0.40;0.30;;;;;;;20.08;73.93;95109.94;5071024;28;20471;-59
2023/09/05 01:25:34;;;;;;;0.50;0.40;;;;;;;20.05;74.30;95115.19;5071011;28;20475;-60
2023/09/05 01:28:04;;;;;;;0.43;0.30;;;;;;;20.41;74.00;95114.50;5070545;28;20524;-60
2023/09/05 01:30:32;;;;;;;0.50;0.40;;;;;;;20.31;72.60;95109.56;5071102;28;20449;-59
2023/09/05 01:33:00;;;;;;;0.40;0.30;;;;;;;19.99;77.40;95050.06;5070924;28;20485;-60
2023/09/05 01:35:29;;;;;;;0.67;0.60;;;;;;;20.05;72.05;95113.31;5070619;28;20473;-59
2023/09/05 01:37:57;;;;;;;0.50;0.40;;;;;;;20.04;71.97;95109.03;5070791;28;20970;-59
2023/09/05 01:40:25;;;;;;;0.97;0.60;;;;;;;20.27;72.47;95107.53;5070663;28;20469;-59
2023/09/05 01:42:55;;;;;;;0.40;0.30;;;;;;;20.60;75.01;95110.13;5071152;28;20495;-59
2023/09/05 01:45:23;;;;;;;0.60;0.30;;;;;;;20.30;72.14;95098.00;5071142;28;20444;-59
2023/09/05 01:47:51;;;;;;;0.60;0.50;;;;;;;20.18;71.96;95084.50;5070791;28;20836;-59
2023/09/05 01:50:20;;;;;;;0.70;0.50;;;;;;;20.32;73.49;95109.19;5069788;28;20465;-59
2023/09/05 01:52:48;;;;;;;0.80;0.50;;;;;;;20.24;73.49;95097.41;5070543;28;20461;-59
2023/09/05 01:55:17;;;;;;;0.50;0.33;;;;;;;20.48;74.82;95098.56;5071143;28;20465;-60
2023/09/05 01:57:45;;;;;;;0.50;0.40;;;;;;;20.39;73.41;95095.97;5070932;28;20502;-59
2023/09/05 02:00:17;;;;;;;2.83;0.63;;;;;;;20.19;72.25;95086.06;5070901;28;20437;-59
2023/09/05 02:02:46;;;;;;;0.50;0.40;;;;;;;20.16;72.86;95089.44;5071117;28;20446;-59
2023/09/05 02:05:14;;;;;;;0.50;0.43;;;;;;;19.99;73.94;95087.72;5070869;28;20437;-60
2023/09/05 02:07:43;;;;;;;0.87;0.33;;;;;;;19.68;74.61;95074.00;5070570;28;20490;-58
2023/09/05 02:10:11;;;;;;;0.70;0.53;;;;;;;20.01;74.60;95103.53;5070958;28;20492;-60
2023/09/05 02:12:44;;;;;;;1.43;0.50;;;;;;;20.06;74.51;95106.78;5070572;28;20469;-60
2023/09/05 02:15:13;;;;;;;0.50;0.40;;;;;;;20.36;81.90;95096.66;5070777;28;20440;-59
2023/09/05 02:17:42;;;;;;;3.07;0.37;;;;;;;20.13;74.58;95096.28;5070429;28;20961;-59
2023/09/05 02:20:11;;;;;;;1.50;0.50;;;;;;;20.15;76.17;95095.94;5070740;28;20531;-59
2023/09/05 02:22:42;;;;;;;0.50;0.30;;;;;;;20.12;76.15;95092.00;5070981;28;20825;-59
2023/09/05 02:25:11;;;;;;;1.10;0.57;;;;;;;19.94;75.21;95079.84;5070563;28;20953;-59
2023/09/05 02:27:40;;;;;;;0.50;0.47;;;;;;;20.01;76.73;95093.53;5069712;28;20448;-59
2023/09/05 02:30:09;;;;;;;1.07;0.97;;;;;;;20.08;79.53;95090.31;5070511;28;20952;-59
2023/09/05 02:32:37;;;;;;;0.50;0.40;;;;;;;20.17;79.27;95094.47;5070485;28;20499;-59
2023/09/05 02:35:08;;;;;;;0.50;0.43;;;;;;;20.18;76.35;95098.75;5070898;28;20496;-59
2023/09/05 02:37:38;;;;;;;0.50;0.40;;;;;;;20.15;75.31;95102.09;5070175;28;20433;-59
2023/09/05 02:40:07;;;;;;;0.80;0.70;;;;;;;20.32;74.80;95103.81;5070893;28;20512;-59
2023/09/05 02:42:36;;;;;;;0.50;0.50;;;;;;;20.19;77.25;95088.75;5057018;28;20494;-60
2023/09/05 02:45:05;;;;;;;0.57;0.53;;;;;;;20.51;80.51;95105.97;5070557;28;20519;-59
2023/09/05 02:47:33;;;;;;;0.70;0.60;;;;;;;20.49;76.49;95105.53;5070616;28;20445;-59
2023/09/05 02:50:02;;;;;;;0.70;0.40;;;;;;;20.37;74.01;95105.50;5069916;28;20461;-59
2023/09/05 02:52:33;;;;;;;0.63;0.60;;;;;;;20.06;74.71;95093.31;5070026;28;20459;-59
2023/09/05 02:55:14;;;;;;;0.70;0.53;;;;;;;20.15;77.79;95088.66;5070418;28;20865;-59
2023/09/05 02:57:43;;;;;;;1.00;0.67;;;;;;;20.46;74.55;95098.13;5070280;28;20963;-59
2023/09/05 03:00:12;;;;;;;1.00;1.00;;;;;;;20.38;74.78;95102.50;5068302;28;20899;-59
2023/09/05 03:02:43;;;;;;;0.40;0.30;;;;;;;20.08;74.66;95085.72;5065404;28;20992;-59
2023/09/05 03:05:13;;;;;;;0.97;0.97;;;;;;;19.83;76.14;95088.69;5073835;28;20437;-59
2023/09/05 03:07:45;;;;;;;0.90;0.57;;;;;;;19.95;81.64;95089.50;5073411;28;20433;-59
2023/09/05 03:10:13;;;;;;;1.03;0.80;;;;;;;19.98;75.83;95090.75;5073825;28;20817;-59
2023/09/05 03:12:41;;;;;;;0.93;0.93;;;;;;;19.94;75.44;95092.53;5073217;28;20823;-59
2023/09/05 03:15:10;;;;;;;0.50;0.30;;;;;;;20.31;77.75;95101.47;5073584;28;20472;-59
2023/09/05 03:17:38;;;;;;;0.70;0.70;;;;;;;20.24;76.02;95102.81;5073263;28;20437;-59
2023/09/05 03:20:08;;;;;;;0.73;0.67;;;;;;;20.05;75.46;95105.22;5073347;28;20476;-59
2023/09/05 03:22:36;;;;;;;1.57;0.67;;;;;;;20.05;76.84;95105.22;5072882;28;20952;-59
2023/09/05 03:25:06;;;;;;;0.50;0.50;;;;;;;20.00;75.80;95101.97;5073258;28;20437;-60
2023/09/05 03:27:35;;;;;;;1.30;0.93;;;;;;;19.98;78.17;95099.63;5072898;28;20506;-59
2023/09/05 03:30:03;;;;;;;0.63;0.40;;;;;;;19.25;76.60;94976.84;5072839;28;20437;-59
2023/09/05 03:32:32;;;;;;;0.67;0.63;;;;;;;20.07;76.00;95113.75;5072212;28;20433;-60
2023/09/05 03:35:00;;;;;;;0.67;0.67;;;;;;;19.87;76.62;95117.28;5062628;28;20504;-59
2023/09/05 03:37:28;;;;;;;1.37;0.60;;;;;;;20.00;77.59;95113.50;5070473;28;20441;-60
2023/09/05 03:39:57;;;;;;;2.00;0.53;;;;;;;19.96;77.04;95115.28;5072438;28;20472;-60
2023/09/05 03:42:27;;;;;;;4.13;1.33;;;;;;;19.68;75.50;95082.06;5072443;28;20592;-59
2023/09/05 03:44:55;;;;;;;1.97;1.60;;;;;;;19.87;75.25;95128.03;5072680;28;20445;-60
2023/09/05 03:47:24;;;;;;;0.70;0.53;;;;;;;20.15;74.41;95129.00;5071114;28;20499;-60
2023/09/05 03:49:52;;;;;;;0.73;0.73;;;;;;;20.35;73.27;95116.63;5072696;28;20796;-60
2023/09/05 03:52:20;;;;;;;1.00;0.70;;;;;;;20.36;76.46;95118.19;5071784;28;20437;-60
2023/09/05 03:54:49;;;;;;;6.37;0.40;;;;;;;20.11;74.35;95120.03;5072323;28;20547;-60
2023/09/05 03:57:17;;;;;;;1.17;0.73;;;;;;;19.89;76.20;95123.13;5072473;28;20481;-60
2023/09/05 03:59:47;;;;;;;0.90;0.67;;;;;;;19.86;77.40;95137.22;5072116;28;20919;-58
2023/09/05 04:02:15;;;;;;;1.10;1.00;;;;;;;19.74;75.79;95136.41;5072724;28;20540;-59
2023/09/05 04:04:43;;;;;;;0.70;0.60;;;;;;;19.88;75.72;95144.97;5072456;28;20441;-59
2023/09/05 04:07:12;;;;;;;1.30;1.10;;;;;;;20.16;77.24;95144.03;5072694;28;20474;-59
2023/09/05 04:09:40;;;;;;;1.40;0.50;;;;;;;20.21;76.35;95146.50;5071951;28;20476;-59
2023/09/05 04:12:09;;;;;;;0.93;0.93;;;;;;;19.99;75.01;95143.41;5072373;28;20452;-59
2023/09/05 04:14:37;;;;;;;2.20;1.33;;;;;;;20.18;75.89;95149.88;5072355;28;20468;-59
2023/09/05 04:17:07;;;;;;;1.10;0.97;;;;;;;20.09;73.65;95135.72;5072112;28;20446;-59
2023/09/05 04:19:35;;;;;;;0.60;0.60;;;;;;;20.35;74.25;95158.91;5071805;28;20473;-59
2023/09/05 04:22:04;;;;;;;0.70;0.53;;;;;;;20.27;75.00;95158.66;5071925;28;20442;-58
2023/09/05 04:24:32;;;;;;;0.80;0.50;;;;;;;20.20;73.93;95154.91;5067797;28;20476;-58
2023/09/05 04:27:00;;;;;;;0.60;0.57;;;;;;;20.16;73.71;95137.88;5054091;28;20434;-57
2023/09/05 04:29:29;;;;;;;2.07;1.97;;;;;;;20.20;74.02;95160.31;5070306;28;20448;-58
2023/09/05 04:31:57;;;;;;;1.63;0.60;;;;;;;20.35;74.92;95146.22;5071973;28;20469;-58
2023/09/05 04:34:27;;;;;;;1.37;1.27;;;;;;;20.39;73.12;95160.56;5071844;28;20534;-57
2023/09/05 04:36:56;;;;;;;1.23;1.13;;;;;;;20.38;73.39;95147.47;5071445;28;20605;-58
2023/09/05 04:39:24;;;;;;;0.70;0.57;;;;;;;20.50;73.98;95144.78;5071151;28;20471;-58
2023/09/05 04:41:52;;;;;;;0.73;0.73;;;;;;;20.25;73.93;95147.44;5071224;28;20445;-58
2023/09/05 04:44:21;;;;;;;1.37;0.70;;;;;;;20.31;73.04;95148.03;5071780;28;20463;-56
2023/09/05 04:46:49;;;;;;;1.40;0.70;;;;;;;20.65;74.45;95141.41;5072133;28;20449;-58
2023/09/05 04:49:18;;;;;;;1.80;1.70;;;;;;;20.49;73.08;95140.53;5071812;28;20487;-57
2023/09/05 04:51:47;;;;;;;0.50;0.50;;;;;;;20.47;72.24;95151.63;5071638;28;20445;-57
2023/09/05 04:54:16;;;;;;;0.50;0.50;;;;;;;20.71;72.39;95145.47;5071832;28;20438;-56
2023/09/05 04:56:44;;;;;;;1.00;0.90;;;;;;;20.25;72.45;95095.53;5071395;28;20437;-57
2023/09/05 04:59:12;;;;;;;0.60;0.60;;;;;;;20.78;72.29;95141.09;5071686;28;20495;-56
2023/09/05 05:01:41;;;;;;;2.40;0.87;;;;;;;21.05;73.26;95141.53;5070924;28;20527;-57
2023/09/05 05:04:09;;;;;;;1.53;0.90;;;;;;;20.87;71.03;95178.69;5061728;28;20833;-56
2023/09/05 05:06:37;;;;;;;0.60;0.40;;;;;;;21.10;72.17;95150.16;5067945;28;20452;-53
2023/09/05 05:09:07;;;;;;;0.50;0.30;;;;;;;21.27;70.56;95147.25;5070800;28;20783;-55
2023/09/05 05:11:36;;;;;;;0.87;0.50;;;;;;;21.14;70.31;95142.19;5071407;28;20433;-55
2023/09/05 05:14:04;;;;;;;0.60;0.50;;;;;;;20.91;69.43;95131.09;5070992;28;20494;-54
2023/09/05 05:16:32;;;;;;;1.63;0.50;;;;;;;20.97;69.50;95153.19;5071060;28;20464;-54
2023/09/05 05:19:01;;;;;;;0.77;0.77;;;;;;;20.86;69.91;95144.78;5071111;28;20434;-54
2023/09/05 05:21:30;;;;;;;1.23;0.67;;;;;;;21.00;70.51;95149.84;5070636;28;20489;-54
2023/09/05 05:23:58;;;;;;;0.50;0.50;;;;;;;21.07;70.19;95147.38;5071142;28;20968;-54
2023/09/05 05:26:28;;;;;;;0.50;0.30;;;;;;;21.19;70.10;95131.19;5071531;28;20474;-54
2023/09/05 05:28:56;;;;;;;1.40;0.70;;;;;;;21.33;68.54;95135.06;5071102;28;20441;-54
2023/09/05 05:31:25;;;;;;;1.10;0.90;;;;;;;21.29;68.90;95134.19;5071223;28;20441;-54
2023/09/05 05:33:54;;;;;;;0.50;0.30;;;;;;;21.25;69.66;95136.00;5071732;28;20922;-54
2023/09/05 05:36:23;;;;;;;0.50;0.50;;;;;;;21.52;69.82;95135.25;5070978;28;20491;-54
2023/09/05 05:38:51;;;;;;;2.60;0.93;;;;;;;21.70;69.97;95133.06;5070792;28;20460;-54
2023/09/05 05:41:20;;;;;;;0.80;0.50;;;;;;;21.92;68.16;95147.94;5070698;28;20481;-54
2023/09/05 05:43:50;;;;;;;1.03;0.60;;;;;;;20.73;69.39;94989.69;5071282;28;20520;-54
2023/09/05 05:46:18;;;;;;;3.33;0.80;;;;;;;21.64;68.39;95136.31;5071154;28;20503;-54
2023/09/05 05:48:47;;;;;;;0.60;0.40;;;;;;;21.94;68.98;95138.34;5070985;28;20440;-55
2023/09/05 05:51:16;;;;;;;4.40;1.33;;;;;;;21.91;68.52;95136.34;5070602;28;20441;-55
2023/09/05 05:53:45;;;;;;;0.50;0.50;;;;;;;22.03;68.37;95140.91;5070837;28;20503;-55
2023/09/05 05:56:13;;;;;;;0.60;0.40;;;;;;;22.16;67.99;95150.53;5058778;28;20507;-55
2023/09/05 05:58:41;;;;;;;1.07;0.50;;;;;;;22.26;67.59;95146.53;5070383;28;20440;-55
2023/09/05 06:01:11;;;;;;;0.50;0.50;;;;;;;22.28;67.28;95149.66;5071050;28;20758;-55
2023/09/05 06:03:40;;;;;;;0.87;0.50;;;;;;;22.58;66.16;95129.97;5070851;28;20442;-56
2023/09/05 06:06:08;;;;;;;0.50;0.50;;;;;;;22.51;66.20;95151.41;5070802;28;20449;-55
2023/09/05 06:08:36;;;;;;;0.40;0.30;;;;;;;22.61;66.49;95128.50;5070815;28;20461;-55
2023/09/05 06:11:05;;;;;;;0.50;0.50;;;;;;;22.53;66.29;95146.44;5070523;28;20438;-55
2023/09/05 06:13:33;;;;;;;0.73;0.40;;;;;;;23.04;66.37;95155.41;5070829;28;20865;-55
2023/09/05 06:16:01;;;;;;;1.30;0.30;;;;;;;22.51;64.33;95148.72;5069991;28;20459;-57
2023/09/05 06:18:31;;;;;;;0.60;0.50;;;;;;;22.81;65.40;95156.41;5071174;28;20464;-55
2023/09/05 06:21:00;;;;;;;0.70;0.60;;;;;;;22.85;64.87;95154.53;5069598;28;20510;-55
2023/09/05 06:23:30;;;;;;;0.40;0.30;;;;;;;22.70;65.88;95154.22;5070811;28;20791;-55
2023/09/05 06:25:58;;;;;;;1.43;0.30;;;;;;;22.46;66.09;95164.38;5070171;28;20437;-55
2023/09/05 06:28:27;;;;;;;0.40;0.30;;;;;;;22.37;66.44;95169.16;5070838;28;20491;-55
2023/09/05 06:30:57;;;;;;;0.40;0.30;;;;;;;21.92;67.05;95110.16;5070552;28;20893;-55
2023/09/05 06:33:26;;;;;;;1.07;0.90;;;;;;;22.30;66.91;95169.78;5070716;28;20459;-53
2023/09/05 06:35:56;;;;;;;0.50;0.40;;;;;;;22.08;67.17;95167.66;5073653;28;20433;-51
2023/09/05 06:38:24;;;;;;;0.50;0.30;;;;;;;22.07;67.71;95168.78;5073782;28;20896;-51
2023/09/05 06:40:53;;;;;;;0.70;0.70;;;;;;;22.16;67.15;95182.91;5067806;28;20483;-51
2023/09/05 06:43:21;;;;;;;0.60;0.43;;;;;;;22.39;66.95;95189.28;5066238;28;20452;-51
2023/09/05 06:45:50;;;;;;;0.50;0.40;;;;;;;22.33;67.00;95192.59;5073242;28;20437;-51
2023/09/05 06:48:18;;;;;;;0.50;0.30;;;;;;;22.35;66.21;95195.72;5073839;28;20444;-51
2023/09/05 06:50:47;;;;;;;0.50;0.33;;;;;;;22.30;66.20;95199.47;5060566;28;20548;-51
2023/09/05 06:53:17;;;;;;;0.40;0.30;;;;;;;22.12;67.30;95209.81;5073558;28;20441;-56
2023/09/05 06:55:46;;;;;;;0.40;0.30;;;;;;;22.40;67.70;95217.88;5067189;28;20450;-58
2023/09/05 06:58:14;;;;;;;0.50;0.50;;;;;;;22.36;67.68;95214.31;5068318;28;20441;-56
2023/09/05 07:00:43;;;;;;;0.50;0.40;;;;;;;22.00;67.13;95225.25;5074064;28;20476;-56
2023/09/05 07:03:12;;;;;;;0.60;0.50;;;;;;;22.20;67.67;95229.69;5074004;28;20441;-56
2023/09/05 07:05:41;;;;;;;0.70;0.70;;;;;;;22.10;68.23;95230.16;5074285;28;20558;-56
2023/09/05 07:08:24;;;;;;;0.50;0.30;;;;;;;21.52;68.07;95140.66;5074023;28;20449;-56
2023/09/05 07:10:53;;;;;;;0.40;0.30;;;;;;;22.11;68.50;95234.44;5073123;28;20449;-56
2023/09/05 07:13:21;;;;;;;1.10;0.73;;;;;;;21.99;68.18;95239.88;5073468;28;20993;-56
2023/09/05 07:15:51;;;;;;;1.00;0.80;;;;;;;22.02;68.36;95234.59;5073350;28;20606;-56
2023/09/05 07:18:19;;;;;;;0.50;0.40;;;;;;;21.90;68.71;95218.44;5073585;28;20525;-56
2023/09/05 07:20:49;;;;;;;0.57;0.50;;;;;;;21.81;69.05;95228.53;5073798;28;20452;-56
2023/09/05 07:23:17;;;;;;;0.83;0.43;;;;;;;21.88;68.62;95239.56;5073835;28;20528;-55
2023/09/05 07:25:47;;;;;;;0.60;0.60;;;;;;;21.86;68.61;95233.72;5073213;28;20532;-57
2023/09/05 07:28:15;;;;;;;3.17;0.60;;;;;;;21.97;69.18;95247.53;5062499;28;20803;-57
2023/09/05 07:30:44;;;;;;;0.50;0.40;;;;;;;22.26;69.22;95258.00;5071584;28;20506;-57
2023/09/05 07:33:12;;;;;;;0.70;0.60;;;;;;;21.84;69.51;95254.06;5062492;28;20464;-57
2023/09/05 07:35:41;;;;;;;0.77;0.77;;;;;;;21.86;70.33;95243.72;5073559;28;20445;-57
2023/09/05 07:38:09;;;;;;;0.60;0.57;;;;;;;21.79;70.24;95249.69;5073600;28;20440;-57
2023/09/05 07:40:37;;;;;;;0.60;0.60;;;;;;;21.91;70.08;95228.09;5073664;28;20464;-57
2023/09/05 07:43:07;;;;;;;0.70;0.70;;;;;;;22.35;69.11;95260.53;5068755;28;20481;-57
2023/09/05 07:45:35;;;;;;;1.10;0.70;;;;;;;22.36;69.61;95249.41;5072847;28;20520;-57
2023/09/05 07:48:07;;;;;;;0.90;0.50;;;;;;;22.99;67.78;95250.28;5062477;28;20442;-58
2023/09/05 07:50:35;;;;;;;0.60;0.50;;;;;;;23.81;64.91;95237.50;5070729;28;20465;-59
2023/09/05 07:53:04;;;;;;;0.60;0.60;;;;;;;24.13;64.33;95230.09;5073403;28;20441;-60
2023/09/05 07:55:32;;;;;;;0.80;0.57;;;;;;;24.24;63.05;95246.50;5072623;28;20434;-60
2023/09/05 07:58:00;;;;;;;0.80;0.67;;;;;;;24.25;63.82;95239.97;5073177;28;20502;-60
2023/09/05 08:00:30;;;;;;;0.77;0.77;;;;;;;24.54;63.28;95240.16;5046640;28;20884;-59
2023/09/05 08:03:01;;;;;;;0.70;0.30;;;;;;;24.46;64.37;95251.22;5072535;28;20542;-59
2023/09/05 08:05:31;;;;;;;0.50;0.50;;;;;;;24.20;62.98;95253.81;5072633;28;20541;-58
2023/09/05 08:07:59;;;;;;;0.70;0.40;;;;;;;24.20;64.57;95251.88;5072424;28;20448;-57
2023/09/05 08:10:28;;;;;;;0.70;0.53;;;;;;;23.69;64.37;95253.09;5073042;28;20446;-57
2023/09/05 08:12:57;;;;;;;0.50;0.50;;;;;;;23.25;65.42;95255.94;5069953;28;20481;-59
2023/09/05 08:15:25;;;;;;;1.37;0.80;;;;;;;22.97;67.49;95251.78;5062711;28;20437;-57
2023/09/05 08:17:55;;;;;;;1.03;0.80;;;;;;;22.65;66.99;95257.16;5072905;28;20444;-58
2023/09/05 08:20:23;;;;;;;0.90;0.43;;;;;;;22.25;68.10;95213.22;5072776;28;20441;-59
2023/09/05 08:22:52;;;;;;;0.67;0.67;;;;;;;22.43;68.00;95270.41;5072650;28;20535;-59
2023/09/05 08:25:23;;;;;;;1.40;0.50;;;;;;;22.64;68.77;95277.19;5072723;28;20445;-59
2023/09/05 08:27:53;;;;;;;0.80;0.60;;;;;;;22.82;68.40;95269.53;5072303;28;20449;-58
2023/09/05 08:30:24;;;;;;;0.60;0.50;;;;;;;23.01;67.44;95275.06;5072467;28;20941;-58
2023/09/05 08:32:53;;;;;;;1.53;0.80;;;;;;;22.95;67.56;95272.94;5072452;28;21004;-58
2023/09/05 08:35:23;;;;;;;1.07;1.07;;;;;;;22.84;67.63;95271.91;5072633;28;20790;-57
2023/09/05 08:37:52;;;;;;;1.57;1.00;;;;;;;22.87;69.16;95271.22;5046028;28;20956;-53
2023/09/05 08:40:22;;;;;;;0.70;0.60;;;;;;;22.79;68.65;95272.97;5071976;28;20473;-58
2023/09/05 08:42:51;;;;;;;0.47;0.40;;;;;;;23.00;68.04;95280.78;5072226;28;20480;-59
2023/09/05 08:45:22;;;;;;;0.60;0.50;;;;;;;22.65;67.97;95284.16;5071670;28;20529;-59
2023/09/05 08:47:51;;;;;;;0.93;0.93;;;;;;;22.51;70.45;95274.88;5071917;28;20452;-54
2023/09/05 08:50:20;;;;;;;1.63;1.17;;;;;;;22.34;68.98;95277.88;5071251;28;20511;-60
2023/09/05 08:52:52;;;;;;;0.63;0.53;;;;;;;22.10;69.30;95279.56;5071739;28;20487;-60
2023/09/05 08:55:22;;;;;;;1.07;1.07;;;;;;;21.95;70.58;95282.97;5072219;28;20437;-56
2023/09/05 08:57:54;;;;;;;0.60;0.57;;;;;;;22.20;69.54;95289.06;5071112;28;20842;-56
2023/09/05 09:00:24;;;;;;;0.53;0.50;;;;;;;22.39;69.98;95297.31;5071884;28;20437;-53
2023/09/05 09:02:54;;;;;;;0.60;0.57;;;;;;;22.39;69.58;95291.16;5071693;28;20992;-54
2023/09/05 09:05:22;;;;;;;0.77;0.40;;;;;;;22.58;70.37;95294.75;5071609;28;20433;-54
2023/09/05 09:07:55;;;;;;;0.70;0.40;;;;;;;22.44;68.58;95288.97;5071638;28;20444;-54
2023/09/05 09:10:24;;;;;;;0.70;0.70;;;;;;;22.29;69.00;95270.81;5059313;28;20837;-54
2023/09/05 09:12:54;;;;;;;0.73;0.60;;;;;;;22.19;69.09;95287.50;5071255;28;20441;-53
2023/09/05 09:15:25;;;;;;;1.93;0.60;;;;;;;22.58;69.24;95283.16;5071833;28;20496;-54
2023/09/05 09:17:54;;;;;;;0.90;0.90;;;;;;;22.53;67.83;95268.00;5071555;28;20445;-54
2023/09/05 09:20:23;;;;;;;0.73;0.73;;;;;;;22.56;67.34;95274.63;5071564;28;20476;-54
2023/09/05 09:22:53;;;;;;;0.80;0.57;;;;;;;22.53;67.52;95269.91;5071161;28;20481;-54
2023/09/05 09:25:21;;;;;;;0.60;0.43;;;;;;;22.68;67.33;95275.38;5060450;28;20438;-54
2023/09/05 09:27:53;;;;;;;0.53;0.50;;;;;;;22.46;67.72;95283.22;5068941;28;20885;-54
2023/09/05 09:30:24;;;;;;;0.70;0.70;;;;;;;22.66;66.91;95272.25;5071125;28;20484;-55
2023/09/05 09:32:54;;;;;;;0.90;0.90;;;;;;;22.54;67.14;95282.28;5070912;28;20442;-54
2023/09/05 09:35:23;;;;;;;0.70;0.53;;;;;;;22.29;66.43;95222.19;5071044;28;21004;-54
2023/09/05 09:37:52;;;;;;;1.13;1.03;;;;;;;22.76;64.79;95273.63;5071485;28;20941;-54
2023/09/05 09:40:21;;;;;;;0.97;0.30;;;;;;;22.91;65.98;95305.31;5070691;28;21121;-54
2023/09/05 09:42:50;;;;;;;0.70;0.40;;;;;;;22.36;65.25;95221.63;5070993;28;20468;-54
2023/09/05 09:45:19;;;;;;;0.90;0.60;;;;;;;22.83;64.65;95297.34;5070945;28;20524;-54
2023/09/05 09:47:49;;;;;;;1.00;0.70;;;;;;;22.60;65.43;95279.00;5070942;28;20445;-55
2023/09/05 09:50:19;;;;;;;0.60;0.40;;;;;;;22.85;65.14;95308.59;5070409;28;20472;-54
2023/09/05 09:52:58;;;;;;;0.80;0.67;;;;;;;22.87;64.97;95306.34;5071052;28;20453;-54
2023/09/05 09:55:32;;;;;;;1.07;1.00;;;;;;;22.71;64.33;95314.44;5070946;28;20437;-55
2023/09/05 09:58:05;;;;;;;11.90;0.83;;;;;;;22.57;64.28;95309.38;5070833;28;21034;-53
2023/09/05 10:00:35;;;;;;;0.83;0.83;;;;;;;22.42;63.74;95275.03;5071236;28;20437;-54
2023/09/05 10:03:08;;;;;;;0.90;0.90;;;;;;;22.55;62.41;95263.03;5070539;28;20968;-53
2023/09/05 10:05:41;;;;;;;2.67;0.40;;;;;;;23.06;63.00;95328.06;5070787;28;20460;-54
2023/09/05 10:08:12;;;;;;;0.73;0.30;;;;;;;23.15;63.30;95329.47;5071974;28;20441;-55
2023/09/05 10:10:42;;;;;;;0.60;0.60;;;;;;;22.67;62.66;95333.22;5075052;28;20469;-54
2023/09/05 10:13:11;;;;;;;6.43;0.70;;;;;;;22.67;63.61;95325.13;5074770;28;20441;-54
2023/09/05 10:15:42;;;;;;;1.33;1.27;;;;;;;22.76;63.42;95327.69;5075431;28;20494;-54
2023/09/05 10:18:10;;;;;;;0.83;0.57;;;;;;;22.66;62.37;95325.50;5074300;28;20445;-54
2023/09/05 10:20:40;;;;;;;1.43;1.33;;;;;;;22.73;62.68;95337.28;5074486;28;20502;-54
2023/09/05 10:23:08;;;;;;;1.13;1.03;;;;;;;22.57;62.15;95324.81;5074467;28;20480;-54
2023/09/05 10:25:40;;;;;;;0.50;0.30;;;;;;;22.76;62.20;95319.59;5074236;28;20506;-56
2023/09/05 10:28:09;;;;;;;2.00;1.07;;;;;;;22.38;61.71;95289.56;5074877;28;20502;-56
2023/09/05 10:30:42;;;;;;;1.90;0.87;;;;;;;22.92;61.25;95325.00;5074103;28;20472;-56
2023/09/05 10:33:11;;;;;;;0.60;0.60;;;;;;;22.83;60.78;95325.16;5063892;28;20444;-56
2023/09/05 10:35:44;;;;;;;1.30;1.20;;;;;;;23.06;61.88;95336.97;5073861;28;20968;-56
2023/09/05 10:38:14;;;;;;;0.50;0.40;;;;;;;23.36;62.40;95331.94;5074683;28;21030;-56
2023/09/05 10:40:44;;;;;;;0.60;0.50;;;;;;;23.31;61.57;95329.47;5074405;28;20449;-56
2023/09/05 10:43:19;;;;;;;0.40;0.30;;;;;;;23.34;62.07;95334.19;5074461;28;20472;-57
2023/09/05 10:45:55;;;;;;;0.93;0.67;;;;;;;23.24;62.03;95332.81;5074080;28;20436;-56
2023/09/05 10:48:35;;;;;;;1.23;1.23;;;;;;;23.10;63.95;95353.25;5074706;28;20941;-56
2023/09/05 10:51:10;;;;;;;1.57;1.23;;;;;;;22.62;64.42;95301.06;5073687;28;20507;-56
2023/09/05 10:53:40;;;;;;;0.60;0.40;;;;;;;23.22;63.01;95372.94;5073650;28;20951;-56
2023/09/05 10:56:41;;;;;;;0.87;0.60;;;;;;;23.27;62.79;95372.69;5074112;28;20443;-56
2023/09/05 10:59:10;;;;;;;0.50;0.50;;;;;;;23.43;63.43;95383.50;5073770;28;20455;-56
2023/09/05 11:01:51;;;;;;;0.90;0.90;;;;;;;23.09;62.79;95381.47;5073679;28;21049;-56
2023/09/05 11:04:27;;;;;;;0.50;0.50;;;;;;;22.42;63.52;95317.44;5073778;28;20933;-56
2023/09/05 11:06:58;;;;;;;3.53;2.53;;;;;;;22.48;63.26;95356.59;5073674;28;20466;-57
2023/09/05 11:09:26;;;;;;;0.93;0.93;;;;;;;22.91;63.48;95393.72;5074009;28;20823;-56
2023/09/05 11:11:56;;;;;;;0.67;0.67;;;;;;;22.98;62.58;95383.09;5073911;28;20433;-57
2023/09/05 11:14:36;;;;;;;0.87;0.60;;;;;;;22.86;62.31;95381.25;5073436;28;20803;-57
2023/09/05 11:17:04;;;;;;;0.80;0.70;;;;;;;22.79;63.29;95381.06;5074086;28;20445;-57
2023/09/05 11:19:38;;;;;;;0.60;0.60;;;;;;;22.94;64.38;95369.50;5073113;28;20445;-57
2023/09/05 11:22:11;;;;;;;1.27;0.60;;;;;;;23.09;63.88;95390.34;5073571;28;20438;-56
2023/09/05 11:24:46;;;;;;;0.60;0.40;;;;;;;23.23;63.17;95395.34;5072771;28;20477;-57
2023/09/05 11:27:18;;;;;;;0.43;0.33;;;;;;;23.38;61.75;95396.53;5072654;28;20437;-57
2023/09/05 11:29:49;;;;;;;0.60;0.30;;;;;;;23.41;62.73;95402.00;5061433;28;20437;-57
2023/09/05 11:32:19;;;;;;;0.67;0.67;;;;;;;23.18;62.39;95392.88;5073545;28;20440;-56
2023/09/05 11:34:48;;;;;;;1.43;0.90;;;;;;;23.25;63.14;95406.63;5073181;28;21018;-57
2023/09/05 11:37:18;;;;;;;0.60;0.60;;;;;;;23.10;61.73;95407.34;5073418;28;20518;-57
2023/09/05 11:39:48;;;;;;;0.40;0.40;;;;;;;23.07;61.48;95405.34;5073199;28;20484;-57
2023/09/05 11:42:20;;;;;;;0.63;0.57;;;;;;;22.84;61.70;95396.22;5072488;28;20441;-57
2023/09/05 11:44:48;;;;;;;0.50;0.40;;;;;;;22.69;61.80;95393.13;5073303;28;20477;-59